createdAt,value
2023-02-12T00:00:08.630Z,3.10
2023-02-12T00:01:13.143Z,3.08
2023-02-12T00:02:16.926Z,3.06
2023-02-12T00:03:20.200Z,3.06
2023-02-12T00:04:23.975Z,2.98
2023-02-12T00:05:28.427Z,3.01
2023-02-12T00:06:31.686Z,2.88
2023-02-12T00:07:35.230Z,2.93
2023-02-12T00:08:40.372Z,2.86
2023-02-12T00:09:42.843Z,2.96
2023-02-12T00:10:46.366Z,2.93
2023-02-12T00:11:49.348Z,3.04
2023-02-12T00:12:55.646Z,2.93
2023-02-12T00:13:59.595Z,2.92
2023-02-12T00:15:03.101Z,2.96
2023-02-12T00:16:10.214Z,3.02
2023-02-12T00:17:13.033Z,3.13
2023-02-12T00:18:16.449Z,3.00
2023-02-12T00:19:20.281Z,3.08
2023-02-12T00:20:23.446Z,3.20
2023-02-12T00:21:26.953Z,3.19
2023-02-12T00:22:30.352Z,3.01
2023-02-12T00:23:32.607Z,3.06
2023-02-12T00:24:36.835Z,2.99
2023-02-12T00:25:42.009Z,2.80
2023-02-12T00:26:46.169Z,2.72
2023-02-12T00:27:51.429Z,2.74
2023-02-12T00:28:54.828Z,2.81
2023-02-12T00:30:00.359Z,2.86
2023-02-12T00:31:07.286Z,3.02
2023-02-12T00:32:14.048Z,2.79
2023-02-12T00:33:17.184Z,2.81
2023-02-12T00:34:21.689Z,2.87
2023-02-12T00:35:25.164Z,3.03
2023-02-12T00:36:29.085Z,2.90
2023-02-12T00:37:32.687Z,2.89
2023-02-12T00:38:36.705Z,2.96
2023-02-12T00:39:39.279Z,2.94
2023-02-12T00:40:42.501Z,2.93
2023-02-12T00:41:45.347Z,2.75
2023-02-12T00:42:51.355Z,2.87
2023-02-12T00:43:56.911Z,2.68
2023-02-12T00:45:00.294Z,2.72
2023-02-12T00:46:03.034Z,2.73
2023-02-12T00:47:06.634Z,2.76
2023-02-12T00:48:09.799Z,2.68
2023-02-12T00:49:13.760Z,2.77
2023-02-12T00:50:17.259Z,2.74
2023-02-12T00:51:21.383Z,2.73
2023-02-12T00:52:24.474Z,2.81
2023-02-12T00:53:27.656Z,2.71
2023-02-12T00:54:32.548Z,2.60
2023-02-12T00:55:34.771Z,2.62
2023-02-12T00:56:38.390Z,2.58
2023-02-12T00:57:42.717Z,2.70
2023-02-12T00:58:46.128Z,2.58
2023-02-12T00:59:49.427Z,2.64
2023-02-12T01:00:54.589Z,2.61
2023-02-12T01:01:59.446Z,2.59
2023-02-12T01:03:03.073Z,2.62
2023-02-12T01:04:11.093Z,2.60
2023-02-12T01:05:14.503Z,2.55
2023-02-12T01:06:17.969Z,2.66
2023-02-12T01:07:25.765Z,2.48
2023-02-12T01:08:28.946Z,2.62
2023-02-12T01:09:32.774Z,2.55
2023-02-12T01:10:35.747Z,2.65
2023-02-12T01:11:40.417Z,2.66
2023-02-12T01:12:52.896Z,2.60
2023-02-12T01:13:57.346Z,2.50
2023-02-12T01:15:00.956Z,2.53
2023-02-12T01:16:18.197Z,2.66
2023-02-12T01:17:22.367Z,2.59
2023-02-12T01:18:27.961Z,2.51
2023-02-12T01:19:33.690Z,2.60
2023-02-12T01:20:38.848Z,2.58
2023-02-12T01:21:42.237Z,2.47
2023-02-12T01:22:46.693Z,2.51
2023-02-12T01:23:50.304Z,2.57
2023-02-12T01:24:53.587Z,2.61
2023-02-12T01:25:58.877Z,2.44
2023-02-12T01:27:02.488Z,2.58
2023-02-12T01:28:07.605Z,2.49
2023-02-12T01:29:11.170Z,2.56
2023-02-12T01:30:16.624Z,2.57
2023-02-12T01:31:22.347Z,2.50
2023-02-12T01:32:28.071Z,2.54
2023-02-12T01:33:32.649Z,2.52
2023-02-12T01:34:35.750Z,2.42
2023-02-12T01:35:39.965Z,2.40
2023-02-12T01:36:43.436Z,2.32
2023-02-12T01:37:49.794Z,2.38
2023-02-12T01:38:53.115Z,2.58
2023-02-12T01:39:56.667Z,2.71
2023-02-12T01:41:09.776Z,2.65
2023-02-12T01:42:15.576Z,2.57
2023-02-12T01:43:18.250Z,2.55
2023-02-12T01:44:23.920Z,2.56
2023-02-12T01:45:31.407Z,2.48
2023-02-12T01:46:35.986Z,2.51
2023-02-12T01:47:44.076Z,2.47
2023-02-12T01:48:48.452Z,2.53
2023-02-12T01:49:52.032Z,2.52
2023-02-12T01:50:56.686Z,2.46
2023-02-12T01:52:01.331Z,2.40
2023-02-12T01:53:04.837Z,2.61
2023-02-12T01:54:09.065Z,2.60
2023-02-12T01:55:13.100Z,2.77
2023-02-12T01:56:16.924Z,2.73
2023-02-12T01:57:20.844Z,2.70
2023-02-12T01:58:28.864Z,2.60
2023-02-12T01:59:34.223Z,2.60
2023-02-12T02:00:39.196Z,2.57
2023-02-12T02:01:42.675Z,2.65
2023-02-12T02:02:48.327Z,2.68
2023-02-12T02:03:52.525Z,2.57
2023-02-12T02:04:57.715Z,2.52
2023-02-12T02:06:04.864Z,2.61
2023-02-12T02:07:09.314Z,2.86
2023-02-12T02:08:15.224Z,2.88
2023-02-12T02:09:19.449Z,2.79
2023-02-12T02:10:26.440Z,2.74
2023-02-12T02:11:51.921Z,2.85
2023-02-12T02:13:16.636Z,2.76
2023-02-12T02:14:35.321Z,2.79
2023-02-12T02:15:39.782Z,2.87
2023-02-12T02:16:47.742Z,2.59
2023-02-12T02:18:04.606Z,2.46
2023-02-12T02:19:14.900Z,2.55
2023-02-12T02:20:39.329Z,2.61
2023-02-12T02:21:47.368Z,2.64
2023-02-12T02:22:59.809Z,2.50
2023-02-12T02:24:20.107Z,2.57
2023-02-12T02:25:40.738Z,2.70
2023-02-12T02:26:49.462Z,2.73
2023-02-12T02:27:56.205Z,2.54
2023-02-12T02:29:05.293Z,2.50
2023-02-12T02:30:10.763Z,2.52
2023-02-12T02:31:16.930Z,2.50
2023-02-12T02:32:25.185Z,2.57
2023-02-12T02:33:32.337Z,2.48
2023-02-12T02:34:37.818Z,2.46
2023-02-12T02:35:43.164Z,2.50
2023-02-12T02:37:00.610Z,2.43
2023-02-12T02:37:58.571Z,2.67
2023-02-12T02:39:03.638Z,2.74
2023-02-12T02:40:09.557Z,2.55
2023-02-12T02:41:20.462Z,2.47
2023-02-12T02:42:27.528Z,2.45
2023-02-12T02:43:33.719Z,2.37
2023-02-12T02:44:39.443Z,2.39
2023-02-12T02:45:53.836Z,2.38
2023-02-12T02:46:59.780Z,2.39
2023-02-12T02:48:04.934Z,2.50
2023-02-12T02:49:09.016Z,2.61
2023-02-12T02:50:13.419Z,2.38
2023-02-12T02:51:20.412Z,2.39
2023-02-12T02:52:25.814Z,2.50
2023-02-12T02:53:32.455Z,2.25
2023-02-12T02:54:39.496Z,2.09
2023-02-12T02:55:47.184Z,2.14
2023-02-12T02:56:51.832Z,2.00
2023-02-12T02:57:56.088Z,1.78
2023-02-12T02:59:05.014Z,1.83
2023-02-12T03:00:23.874Z,1.83
2023-02-12T03:01:33.231Z,1.77
2023-02-12T03:02:42.201Z,1.80
2023-02-12T03:03:48.708Z,1.74
2023-02-12T03:04:54.080Z,1.58
2023-02-12T03:05:59.009Z,1.69
2023-02-12T03:07:14.251Z,1.78
2023-02-12T03:08:26.746Z,1.84
2023-02-12T03:09:32.021Z,1.78
2023-02-12T03:10:37.197Z,1.85
2023-02-12T03:11:40.966Z,1.81
2023-02-12T03:12:47.340Z,1.91
2023-02-12T03:13:52.613Z,1.89
2023-02-12T03:14:58.427Z,1.70
2023-02-12T03:16:09.577Z,1.69
2023-02-12T03:17:16.813Z,1.58
2023-02-12T03:18:23.135Z,1.68
2023-02-12T03:19:28.528Z,1.43
2023-02-12T03:20:34.019Z,1.35
2023-02-12T03:21:48.301Z,1.32
2023-02-12T03:22:54.063Z,1.36
2023-02-12T03:24:01.669Z,1.13
2023-02-12T03:25:09.983Z,1.12
2023-02-12T03:26:14.795Z,1.10
2023-02-12T03:27:23.721Z,1.04
2023-02-12T03:28:31.823Z,1.16
2023-02-12T03:29:37.070Z,1.17
2023-02-12T03:30:46.442Z,1.07
2023-02-12T03:31:54.159Z,1.10
2023-02-12T03:33:02.294Z,1.21
2023-02-12T03:34:08.294Z,1.21
2023-02-12T03:35:19.540Z,1.21
2023-02-12T03:36:23.674Z,1.14
2023-02-12T03:37:35.105Z,1.04
2023-02-12T03:38:40.395Z,1.05
2023-02-12T03:39:57.470Z,1.11
2023-02-12T03:41:02.883Z,1.38
2023-02-12T03:42:14.818Z,1.30
2023-02-12T03:43:23.339Z,0.99
2023-02-12T03:44:37.498Z,1.00
2023-02-12T03:45:52.600Z,0.97
2023-02-12T03:47:00.608Z,1.08
2023-02-12T03:48:08.275Z,1.18
2023-02-12T03:49:13.567Z,1.01
2023-02-12T03:50:20.522Z,0.92
2023-02-12T03:51:31.959Z,0.96
2023-02-12T03:52:34.847Z,0.97
2023-02-12T03:53:38.239Z,0.91
2023-02-12T03:54:41.952Z,0.75
2023-02-12T03:55:47.755Z,0.70
2023-02-12T03:57:05.568Z,0.68
2023-02-12T03:58:10.037Z,0.76
2023-02-12T03:59:13.700Z,0.76
2023-02-12T04:00:18.236Z,0.74
2023-02-12T04:01:27.834Z,0.68
2023-02-12T04:02:32.617Z,0.74
2023-02-12T04:03:37.040Z,0.61
2023-02-12T04:04:40.493Z,0.50
2023-02-12T04:05:43.832Z,0.59
2023-02-12T04:06:48.754Z,0.42
2023-02-12T04:07:53.256Z,0.45
2023-02-12T04:08:57.702Z,0.56
2023-02-12T04:10:04.305Z,0.61
2023-02-12T04:11:08.868Z,0.61
2023-02-12T04:12:23.245Z,0.46
2023-02-12T04:13:32.072Z,0.50
2023-02-12T04:14:47.393Z,0.46
2023-02-12T04:15:58.681Z,0.43
2023-02-12T04:17:03.709Z,0.68
2023-02-12T04:18:08.013Z,0.50
2023-02-12T04:19:13.545Z,0.52
2023-02-12T04:20:18.593Z,0.40
2023-02-12T04:21:23.880Z,0.37
2023-02-12T04:22:35.113Z,0.31
2023-02-12T04:23:51.083Z,0.31
2023-02-12T04:24:59.256Z,0.16
2023-02-12T04:26:12.369Z,0.19
2023-02-12T04:27:23.184Z,0.17
2023-02-12T04:28:33.782Z,0.26
2023-02-12T04:29:41.257Z,0.21
2023-02-12T04:31:01.134Z,0.17
2023-02-12T04:32:06.661Z,0.21
2023-02-12T04:33:11.857Z,0.03
2023-02-12T04:34:18.062Z,-0.08
2023-02-12T04:35:24.415Z,-0.01
2023-02-12T04:36:32.719Z,0.04
2023-02-12T04:37:41.977Z,-0.02
2023-02-12T04:38:47.034Z,0.13
2023-02-12T04:39:53.435Z,0.07
2023-02-12T04:40:56.762Z,-0.03
2023-02-12T04:42:00.348Z,-0.12
2023-02-12T04:43:03.959Z,-0.01
2023-02-12T04:44:21.898Z,-0.06
2023-02-12T04:45:34.815Z,0.09
2023-02-12T04:46:38.815Z,0.11
2023-02-12T04:47:42.634Z,0.13
2023-02-12T04:48:56.270Z,-0.07
2023-02-12T04:49:59.448Z,-0.03
2023-02-12T04:51:02.964Z,-0.02
2023-02-12T04:52:07.235Z,-0.14
2023-02-12T04:53:11.020Z,-0.13
2023-02-12T04:54:16.824Z,-0.12
2023-02-12T04:55:22.856Z,-0.20
2023-02-12T04:56:26.330Z,-0.15
2023-02-12T04:57:30.612Z,0.01
2023-02-12T04:58:34.800Z,0.18
2023-02-12T04:59:37.385Z,-0.03
2023-02-12T05:00:41.496Z,-0.10
2023-02-12T05:01:44.925Z,-0.12
2023-02-12T05:02:48.620Z,-0.02
2023-02-12T05:03:53.778Z,-0.10
2023-02-12T05:04:57.958Z,-0.09
2023-02-12T05:06:08.660Z,-0.02
2023-02-12T05:07:11.518Z,0.08
2023-02-12T05:08:14.175Z,0.10
2023-02-12T05:09:18.864Z,0.00
2023-02-12T05:10:22.156Z,0.13
2023-02-12T05:11:24.394Z,0.25
2023-02-12T05:12:27.688Z,0.13
2023-02-12T05:13:31.923Z,0.03
2023-02-12T05:14:35.325Z,0.13
2023-02-12T05:15:41.262Z,0.22
2023-02-12T05:16:44.965Z,0.19
2023-02-12T05:17:51.270Z,0.18
2023-02-12T05:18:54.774Z,0.04
2023-02-12T05:19:58.907Z,-0.01
2023-02-12T05:21:03.277Z,0.23
2023-02-12T05:22:08.642Z,0.37
2023-02-12T05:23:11.388Z,0.33
2023-02-12T05:24:15.466Z,0.26
2023-02-12T05:25:17.790Z,0.23
2023-02-12T05:26:22.036Z,0.18
2023-02-12T05:27:25.433Z,0.12
2023-02-12T05:28:29.309Z,-0.01
2023-02-12T05:29:32.749Z,0.11
2023-02-12T05:30:35.426Z,0.06
2023-02-12T05:31:38.991Z,0.08
2023-02-12T05:32:42.731Z,0.21
2023-02-12T05:33:47.351Z,0.12
2023-02-12T05:34:51.418Z,0.08
2023-02-12T05:35:55.157Z,0.08
2023-02-12T05:37:03.236Z,0.25
2023-02-12T05:38:06.417Z,0.20
2023-02-12T05:39:11.179Z,0.22
2023-02-12T05:40:15.516Z,0.21
2023-02-12T05:41:22.792Z,0.21
2023-02-12T05:42:25.998Z,0.34
2023-02-12T05:43:29.487Z,0.32
2023-02-12T05:44:33.081Z,0.07
2023-02-12T05:45:37.751Z,0.20
2023-02-12T05:46:43.523Z,0.29
2023-02-12T05:47:46.640Z,0.46
2023-02-12T05:48:52.328Z,0.14
2023-02-12T05:49:55.846Z,0.00
2023-02-12T05:51:08.851Z,-0.07
2023-02-12T05:52:13.233Z,-0.07
2023-02-12T05:53:16.905Z,-0.03
2023-02-12T05:54:21.042Z,-0.02
2023-02-12T05:55:24.329Z,-0.11
2023-02-12T05:56:29.723Z,-0.11
2023-02-12T05:57:32.938Z,-0.22
2023-02-12T05:58:35.484Z,-0.23
2023-02-12T05:59:40.236Z,-0.43
2023-02-12T06:00:43.277Z,-0.52
2023-02-12T06:01:48.936Z,-0.59
2023-02-12T06:02:52.498Z,-0.54
2023-02-12T06:03:55.631Z,-0.30
2023-02-12T06:04:58.821Z,-0.36
2023-02-12T06:06:02.831Z,-0.32
2023-02-12T06:07:07.116Z,-0.23
2023-02-12T06:08:11.704Z,-0.03
2023-02-12T06:09:16.076Z,-0.18
2023-02-12T06:10:19.141Z,-0.28
2023-02-12T06:11:22.538Z,-0.39
2023-02-12T06:12:25.532Z,-0.10
2023-02-12T06:13:28.296Z,-0.13
2023-02-12T06:14:32.100Z,-0.13
2023-02-12T06:15:38.616Z,-0.08
2023-02-12T06:16:42.770Z,0.12
2023-02-12T06:17:46.718Z,0.37
2023-02-12T06:18:49.397Z,0.62
2023-02-12T06:19:55.519Z,0.81
2023-02-12T06:20:59.106Z,1.01
2023-02-12T06:22:02.612Z,1.11
2023-02-12T06:23:05.933Z,1.18
2023-02-12T06:24:10.562Z,1.47
2023-02-12T06:25:14.172Z,1.64
2023-02-12T06:26:18.092Z,1.69
2023-02-12T06:28:24.862Z,2.60
2023-02-12T06:29:27.243Z,3.19
2023-02-12T06:30:32.432Z,3.49
2023-02-12T06:31:36.942Z,4.13
2023-02-12T06:32:39.332Z,3.76
2023-02-12T06:33:42.837Z,2.90
2023-02-12T06:34:45.813Z,2.61
2023-02-12T06:35:49.129Z,2.48
2023-02-12T06:36:52.728Z,2.65
2023-02-12T06:37:55.840Z,2.80
2023-02-12T06:38:58.926Z,2.74
2023-02-12T06:40:02.024Z,2.66
2023-02-12T06:41:05.545Z,2.33
2023-02-12T06:42:07.843Z,2.37
2023-02-12T06:43:10.313Z,2.51
2023-02-12T06:44:14.058Z,2.37
2023-02-12T06:45:17.637Z,2.29
2023-02-12T06:46:22.584Z,2.08
2023-02-12T06:47:27.246Z,2.06
2023-02-12T06:48:31.000Z,1.89
2023-02-12T06:49:34.152Z,1.74
2023-02-12T06:50:37.635Z,1.76
2023-02-12T06:51:40.911Z,2.03
2023-02-12T06:52:46.110Z,2.05
2023-02-12T06:53:50.474Z,1.77
2023-02-12T06:54:53.882Z,1.54
2023-02-12T06:55:58.619Z,1.74
2023-02-12T06:57:02.044Z,1.71
2023-02-12T06:58:06.506Z,1.56
2023-02-12T06:59:12.622Z,1.71
2023-02-12T07:00:17.752Z,2.10
2023-02-12T07:01:23.063Z,2.52
2023-02-12T07:02:25.423Z,2.45
2023-02-12T07:03:28.686Z,3.17
2023-02-12T07:04:32.215Z,2.93
2023-02-12T07:05:37.287Z,3.43
2023-02-12T07:06:41.216Z,3.28
2023-02-12T07:07:44.391Z,3.19
2023-02-12T07:08:47.595Z,3.47
2023-02-12T07:09:51.192Z,3.12
2023-02-12T07:10:54.384Z,2.69
2023-02-12T07:12:00.786Z,2.92
2023-02-12T07:13:05.300Z,2.77
2023-02-12T07:14:07.632Z,2.70
2023-02-12T07:15:11.548Z,2.65
2023-02-12T07:16:16.654Z,2.38
2023-02-12T07:17:19.080Z,2.06
2023-02-12T07:18:26.948Z,1.94
2023-02-12T07:19:30.753Z,1.85
2023-02-12T07:20:33.251Z,1.56
2023-02-12T07:21:37.788Z,1.86
2023-02-12T07:22:41.519Z,2.08
2023-02-12T07:23:51.005Z,2.35
2023-02-12T07:24:56.554Z,3.38
2023-02-12T07:26:01.522Z,4.65
2023-02-12T07:27:08.155Z,6.53
2023-02-12T07:28:11.915Z,6.18
2023-02-12T07:29:15.132Z,6.94
2023-02-12T07:30:23.067Z,8.81
2023-02-12T07:31:26.755Z,9.63
2023-02-12T07:32:33.323Z,11.11
2023-02-12T07:33:37.468Z,12.57
2023-02-12T07:34:40.012Z,10.62
2023-02-12T07:35:43.525Z,9.25
2023-02-12T07:36:46.394Z,6.43
2023-02-12T07:37:49.895Z,5.72
2023-02-12T07:38:54.203Z,6.08
2023-02-12T07:39:57.867Z,6.24
2023-02-12T07:41:12.841Z,6.16
2023-02-12T07:42:17.193Z,7.59
2023-02-12T07:43:22.256Z,7.21
2023-02-12T07:44:25.413Z,9.86
2023-02-12T07:45:29.864Z,9.02
2023-02-12T07:46:35.080Z,7.75
2023-02-12T07:47:38.152Z,6.98
2023-02-12T07:48:45.546Z,6.89
2023-02-12T07:49:49.456Z,7.80
2023-02-12T07:50:54.919Z,8.46
2023-02-12T07:51:57.411Z,8.48
2023-02-12T07:53:03.963Z,8.95
2023-02-12T07:54:08.699Z,9.23
2023-02-12T07:55:11.478Z,7.44
2023-02-12T07:56:17.596Z,7.80
2023-02-12T07:57:22.138Z,7.85
2023-02-12T07:58:25.327Z,8.48
2023-02-12T07:59:31.228Z,6.80
2023-02-12T08:00:38.887Z,6.16
2023-02-12T08:01:43.156Z,5.51
2023-02-12T08:02:52.008Z,5.80
2023-02-12T08:03:57.276Z,6.77
2023-02-12T08:05:01.321Z,8.19
2023-02-12T08:06:12.530Z,6.41
2023-02-12T08:07:15.319Z,5.29
2023-02-12T08:08:19.846Z,7.07
2023-02-12T08:09:26.769Z,8.36
2023-02-12T08:10:32.334Z,6.83
2023-02-12T08:11:35.173Z,7.67
2023-02-12T08:12:37.518Z,7.55
2023-02-12T08:13:40.939Z,7.09
2023-02-12T08:14:44.527Z,10.68
2023-02-12T08:15:47.650Z,12.79
2023-02-12T08:16:51.819Z,14.12
2023-02-12T08:17:56.202Z,12.88
2023-02-12T08:19:14.283Z,12.88
2023-02-12T08:20:05.916Z,12.28
2023-02-12T08:21:10.792Z,11.41
2023-02-12T08:22:14.338Z,11.85
2023-02-12T08:23:17.800Z,12.91
2023-02-12T08:24:23.404Z,13.66
2023-02-12T08:25:26.800Z,14.48
2023-02-12T08:26:31.661Z,15.30
2023-02-12T08:27:35.267Z,14.61
2023-02-12T08:28:40.455Z,12.94
2023-02-12T08:29:43.844Z,11.69
2023-02-12T08:30:47.144Z,8.29
2023-02-12T08:31:51.323Z,5.69
2023-02-12T08:32:54.882Z,5.92
2023-02-12T08:34:00.183Z,9.66
2023-02-12T08:35:03.448Z,10.52
2023-02-12T08:36:12.221Z,9.88
2023-02-12T08:37:15.474Z,8.84
2023-02-12T08:38:19.407Z,8.72
2023-02-12T08:39:24.514Z,11.06
2023-02-12T08:40:28.086Z,11.01
2023-02-12T08:41:31.375Z,10.96
2023-02-12T08:42:34.679Z,11.69
2023-02-12T08:43:38.595Z,12.20
2023-02-12T08:44:43.357Z,13.68
2023-02-12T08:45:46.664Z,13.27
2023-02-12T08:46:51.316Z,12.69
2023-02-12T08:47:55.337Z,13.27
2023-02-12T08:48:59.882Z,13.15
2023-02-12T08:50:05.579Z,13.55
2023-02-12T08:51:15.023Z,13.99
2023-02-12T08:52:20.328Z,13.95
2023-02-12T08:53:23.078Z,13.46
2023-02-12T08:54:28.582Z,13.04
2023-02-12T08:55:32.039Z,12.72
2023-02-12T08:56:35.164Z,13.86
2023-02-12T08:57:38.053Z,11.01
2023-02-12T08:58:41.692Z,7.98
2023-02-12T08:59:43.913Z,8.74
2023-02-12T09:00:47.197Z,8.63
2023-02-12T09:01:52.401Z,8.35
2023-02-12T09:02:55.879Z,9.30
2023-02-12T09:03:59.709Z,8.63
2023-02-12T09:05:04.570Z,8.80
2023-02-12T09:06:07.760Z,9.32
2023-02-12T09:07:12.311Z,6.67
2023-02-12T09:08:17.696Z,6.60
2023-02-12T09:09:20.980Z,6.31
2023-02-12T09:10:24.379Z,6.42
2023-02-12T09:11:33.183Z,7.73
2023-02-12T09:12:36.815Z,8.19
2023-02-12T09:13:41.371Z,6.99
2023-02-12T09:14:46.335Z,6.37
2023-02-12T09:15:49.570Z,6.07
2023-02-12T09:16:53.242Z,4.88
2023-02-12T09:17:57.074Z,5.35
2023-02-12T09:19:03.921Z,6.18
2023-02-12T09:20:08.151Z,6.94
2023-02-12T09:21:14.157Z,5.50
2023-02-12T09:22:19.512Z,5.86
2023-02-12T09:23:24.124Z,5.18
2023-02-12T09:24:28.490Z,5.97
2023-02-12T09:25:34.333Z,5.93
2023-02-12T09:26:38.378Z,6.15
2023-02-12T09:27:41.788Z,6.81
2023-02-12T09:28:45.932Z,5.79
2023-02-12T09:29:49.092Z,4.58
2023-02-12T09:30:52.381Z,4.30
2023-02-12T09:31:56.028Z,4.80
2023-02-12T09:32:59.290Z,5.36
2023-02-12T09:34:04.390Z,5.53
2023-02-12T09:35:08.194Z,5.76
2023-02-12T09:36:13.119Z,5.79
2023-02-12T09:37:16.682Z,5.93
2023-02-12T09:38:20.178Z,5.53
2023-02-12T09:39:23.574Z,5.43
2023-02-12T09:40:46.637Z,5.06
2023-02-12T09:41:51.984Z,4.74
2023-02-12T09:43:03.328Z,4.94
2023-02-12T09:44:16.646Z,4.94
2023-02-12T09:45:27.789Z,4.93
2023-02-12T09:46:42.058Z,4.93
2023-02-12T09:47:50.192Z,4.98
2023-02-12T09:49:13.604Z,5.41
2023-02-12T09:50:21.432Z,5.25
2023-02-12T09:51:28.342Z,4.99
2023-02-12T09:52:32.580Z,4.73
2023-02-12T09:53:38.715Z,4.47
2023-02-12T09:54:43.143Z,4.66
2023-02-12T09:55:46.545Z,4.55
2023-02-12T09:56:53.788Z,4.33
2023-02-12T09:57:57.419Z,3.81
2023-02-12T09:59:03.210Z,4.13
2023-02-12T10:00:15.399Z,4.08
2023-02-12T10:01:19.877Z,3.87
2023-02-12T10:02:24.175Z,3.83
2023-02-12T10:03:29.349Z,4.18
2023-02-12T10:04:33.857Z,4.82
2023-02-12T10:05:39.317Z,4.76
2023-02-12T10:06:45.750Z,4.26
2023-02-12T10:08:08.656Z,3.82
2023-02-12T10:09:16.018Z,4.32
2023-02-12T10:10:24.335Z,4.00
2023-02-12T10:11:32.468Z,3.86
2023-02-12T10:12:49.097Z,3.88
2023-02-12T10:13:58.334Z,3.87
2023-02-12T10:15:20.333Z,3.79
2023-02-12T10:16:38.325Z,4.21
2023-02-12T10:17:43.145Z,4.32
2023-02-12T10:18:51.800Z,4.49
2023-02-12T10:20:08.481Z,4.41
2023-02-12T10:21:32.085Z,4.77
2023-02-12T10:22:55.032Z,4.69
2023-02-12T10:23:54.016Z,4.85
2023-02-12T10:25:02.126Z,4.48
2023-02-12T10:26:16.416Z,4.23
2023-02-12T10:27:21.670Z,4.01
2023-02-12T10:28:29.817Z,4.33
2023-02-12T10:29:35.980Z,4.22
2023-02-12T10:30:44.670Z,4.02
2023-02-12T10:31:48.991Z,4.09
2023-02-12T10:32:53.286Z,4.35
2023-02-12T10:33:57.751Z,4.01
2023-02-12T10:35:01.453Z,4.16
2023-02-12T10:36:05.686Z,3.72
2023-02-12T10:37:11.900Z,4.02
2023-02-12T10:38:16.867Z,3.99
2023-02-12T10:39:22.273Z,4.06
2023-02-12T10:40:30.672Z,4.32
2023-02-12T10:41:34.676Z,3.96
2023-02-12T10:42:42.282Z,4.12
2023-02-12T10:43:47.138Z,3.82
2023-02-12T10:44:52.309Z,3.86
2023-02-12T10:45:57.054Z,3.71
2023-02-12T10:47:01.624Z,3.82
2023-02-12T10:48:08.293Z,3.48
2023-02-12T10:49:14.456Z,3.45
2023-02-12T10:50:21.261Z,3.42
2023-02-12T10:51:37.776Z,3.37
2023-02-12T10:52:52.732Z,3.43
2023-02-12T10:53:56.291Z,3.29
2023-02-12T10:55:03.994Z,3.41
2023-02-12T10:56:15.203Z,3.22
2023-02-12T10:57:22.669Z,3.31
2023-02-12T10:58:25.032Z,3.35
2023-02-12T10:59:30.001Z,3.62
2023-02-12T11:00:38.402Z,3.74
2023-02-12T11:01:43.608Z,3.97
2023-02-12T11:02:48.871Z,3.84
2023-02-12T11:03:52.583Z,3.68
2023-02-12T11:04:55.697Z,3.85
2023-02-12T11:06:01.998Z,3.87
2023-02-12T11:07:10.217Z,3.85
2023-02-12T11:08:30.631Z,3.82
2023-02-12T11:09:42.581Z,3.66
2023-02-12T11:10:46.098Z,3.58
2023-02-12T11:11:49.614Z,3.51
2023-02-12T11:12:54.795Z,3.54
2023-02-12T11:14:02.659Z,3.32
2023-02-12T11:15:20.061Z,3.46
2023-02-12T11:16:31.378Z,3.69
2023-02-12T11:17:36.166Z,3.96
2023-02-12T11:18:41.132Z,3.93
2023-02-12T11:19:43.484Z,4.08
2023-02-12T11:20:52.013Z,3.73
2023-02-12T11:21:56.654Z,3.18
2023-02-12T11:23:01.384Z,3.51
2023-02-12T11:24:22.684Z,3.34
2023-02-12T11:25:34.646Z,2.95
2023-02-12T11:26:37.929Z,3.09
2023-02-12T11:27:41.225Z,3.06
2023-02-12T11:29:01.395Z,3.18
2023-02-12T11:30:12.576Z,3.25
2023-02-12T11:31:17.763Z,3.27
2023-02-12T11:32:20.866Z,3.11
2023-02-12T11:33:28.956Z,3.18
2023-02-12T11:34:32.454Z,3.08
2023-02-12T11:35:37.205Z,3.26
2023-02-12T11:36:45.235Z,3.11
2023-02-12T11:37:49.142Z,3.22
2023-02-12T11:38:55.177Z,2.97
2023-02-12T11:40:00.506Z,2.86
2023-02-12T11:41:05.809Z,2.96
2023-02-12T11:42:19.355Z,2.98
2023-02-12T11:43:23.828Z,3.11
2023-02-12T11:44:30.103Z,3.02
2023-02-12T11:45:38.101Z,3.05
2023-02-12T11:46:45.210Z,3.21
2023-02-12T11:47:50.445Z,3.42
2023-02-12T11:48:55.100Z,3.34
2023-02-12T11:50:01.664Z,3.32
2023-02-12T11:51:05.930Z,3.34
2023-02-12T11:52:10.525Z,3.17
2023-02-12T11:53:15.492Z,3.15
2023-02-12T11:54:26.341Z,2.95
2023-02-12T11:55:33.548Z,2.92
2023-02-12T11:56:46.780Z,3.16
2023-02-12T11:57:53.902Z,3.33
2023-02-12T11:58:59.032Z,3.25
2023-02-12T12:00:03.896Z,3.27
2023-02-12T12:01:11.649Z,3.06
2023-02-12T12:02:26.989Z,3.00
2023-02-12T12:03:42.495Z,3.03
2023-02-12T12:04:47.195Z,3.00
2023-02-12T12:05:54.503Z,3.38
2023-02-12T12:07:05.966Z,3.25
2023-02-12T12:08:16.754Z,3.39
2023-02-12T12:09:41.957Z,3.45
2023-02-12T12:10:56.902Z,3.42
2023-02-12T12:12:21.296Z,2.94
2023-02-12T12:13:26.682Z,2.63
2023-02-12T12:14:38.125Z,2.82
2023-02-12T12:16:01.230Z,3.05
2023-02-12T12:17:24.396Z,2.97
2023-02-12T12:18:47.231Z,3.53
2023-02-12T12:19:58.884Z,3.57
2023-02-12T12:21:05.417Z,3.47
2023-02-12T12:22:15.602Z,3.35
2023-02-12T12:23:38.331Z,3.07
2023-02-12T12:24:42.453Z,3.06
2023-02-12T12:25:53.280Z,2.84
2023-02-12T12:26:59.293Z,2.86
2023-02-12T12:28:08.991Z,3.06
2023-02-12T12:29:22.702Z,3.00
2023-02-12T12:30:29.650Z,3.17
2023-02-12T12:31:34.861Z,3.14
2023-02-12T12:32:39.994Z,3.28
2023-02-12T12:33:50.085Z,3.20
2023-02-12T12:34:52.541Z,3.45
2023-02-12T12:35:59.806Z,3.27
2023-02-12T12:37:17.184Z,3.14
2023-02-12T12:38:27.200Z,3.20
2023-02-12T12:39:50.961Z,3.13
2023-02-12T12:41:05.729Z,2.98
2023-02-12T12:42:11.549Z,3.21
2023-02-12T12:43:20.578Z,3.13
2023-02-12T12:44:44.849Z,3.22
2023-02-12T12:46:11.105Z,3.21
2023-02-12T12:47:28.586Z,3.31
2023-02-12T12:48:48.247Z,3.35
2023-02-12T12:50:11.386Z,3.30
2023-02-12T12:51:17.911Z,3.11
2023-02-12T12:52:24.026Z,2.71
2023-02-12T12:53:34.436Z,2.82
2023-02-12T12:54:43.472Z,3.06
2023-02-12T12:55:50.445Z,2.82
2023-02-12T12:56:58.368Z,2.70
2023-02-12T12:58:09.139Z,2.84
2023-02-12T12:59:22.665Z,3.00
2023-02-12T13:00:34.008Z,2.96
2023-02-12T13:01:54.812Z,3.00
2023-02-12T13:03:21.053Z,2.99
2023-02-12T13:04:35.180Z,2.90
2023-02-12T13:05:41.298Z,3.06
2023-02-12T13:06:50.026Z,2.96
2023-02-12T13:07:56.191Z,2.87
2023-02-12T13:09:17.328Z,3.11
2023-02-12T13:10:28.548Z,2.98
2023-02-12T13:11:51.840Z,2.83
2023-02-12T13:12:57.280Z,2.74
2023-02-12T13:14:01.610Z,2.91
2023-02-12T13:15:13.786Z,2.90
2023-02-12T13:16:19.292Z,2.85
2023-02-12T13:17:38.741Z,2.80
2023-02-12T13:18:48.009Z,2.93
2023-02-12T13:20:04.876Z,2.83
2023-02-12T13:21:16.224Z,2.90
2023-02-12T13:22:26.341Z,2.89
2023-02-12T13:23:30.988Z,2.79
2023-02-12T13:24:46.314Z,2.81
2023-02-12T13:25:51.550Z,2.79
2023-02-12T13:27:02.275Z,2.99
2023-02-12T13:28:06.675Z,3.02
2023-02-12T13:29:14.915Z,3.24
2023-02-12T13:30:20.094Z,3.17
2023-02-12T13:31:34.445Z,3.01
2023-02-12T13:32:33.201Z,3.20
2023-02-12T13:33:45.941Z,2.86
2023-02-12T13:34:50.230Z,2.89
2023-02-12T13:35:57.049Z,3.05
2023-02-12T13:37:01.583Z,3.01
2023-02-12T13:38:08.124Z,2.92
2023-02-12T13:39:14.259Z,2.74
2023-02-12T13:40:21.646Z,2.78
2023-02-12T13:41:25.943Z,2.77
2023-02-12T13:42:31.130Z,2.93
2023-02-12T13:43:53.883Z,2.87
2023-02-12T13:45:15.109Z,2.58
2023-02-12T13:46:19.822Z,2.75
2023-02-12T13:47:36.144Z,2.87
2023-02-12T13:48:44.624Z,2.95
2023-02-12T13:49:52.078Z,2.97
2023-02-12T13:51:06.473Z,2.89
2023-02-12T13:52:11.977Z,2.84
2023-02-12T13:53:19.326Z,2.94
2023-02-12T13:54:27.548Z,2.95
2023-02-12T13:55:35.432Z,2.86
2023-02-12T13:56:42.897Z,2.82
2023-02-12T13:57:47.594Z,2.64
2023-02-12T13:58:52.620Z,2.54
2023-02-12T13:59:58.658Z,2.50
2023-02-12T14:01:06.574Z,2.57
2023-02-12T14:02:16.128Z,2.48
2023-02-12T14:03:26.602Z,2.40
2023-02-12T14:04:36.466Z,2.58
2023-02-12T14:05:40.086Z,2.58
2023-02-12T14:06:56.118Z,2.59
2023-02-12T14:08:07.294Z,2.56
2023-02-12T14:09:11.874Z,2.46
2023-02-12T14:10:27.310Z,2.52
2023-02-12T14:11:31.502Z,2.42
2023-02-12T14:12:43.512Z,2.40
2023-02-12T14:13:48.803Z,2.30
2023-02-12T14:14:52.924Z,2.34
2023-02-12T14:16:00.435Z,2.34
2023-02-12T14:17:23.028Z,2.22
2023-02-12T14:18:30.083Z,2.29
2023-02-12T14:19:53.547Z,2.42
2023-02-12T14:21:13.867Z,2.34
2023-02-12T14:22:28.153Z,2.40
2023-02-12T14:23:33.439Z,2.26
2023-02-12T14:24:38.046Z,2.52
2023-02-12T14:25:44.082Z,2.56
2023-02-12T14:26:48.738Z,2.47
2023-02-12T14:27:57.137Z,2.37
2023-02-12T14:29:02.830Z,2.31
2023-02-12T14:30:15.640Z,2.17
2023-02-12T14:31:21.826Z,2.46
2023-02-12T14:32:43.143Z,2.36
2023-02-12T14:33:46.301Z,2.12
2023-02-12T14:34:50.027Z,2.08
2023-02-12T14:36:11.074Z,2.12
2023-02-12T14:37:17.832Z,1.93
2023-02-12T14:38:24.246Z,1.94
2023-02-12T14:39:29.621Z,2.04
2023-02-12T14:40:40.274Z,1.94
2023-02-12T14:41:42.689Z,1.95
2023-02-12T14:42:49.863Z,2.01
2023-02-12T14:43:59.958Z,2.11
2023-02-12T14:45:02.613Z,1.94
2023-02-12T14:46:26.112Z,1.82